createdAt,value
2022-11-04T00:02:16.718Z,83.60
2022-11-04T00:04:43.649Z,83.25
2022-11-04T00:07:30.548Z,84.30
2022-11-04T00:09:57.495Z,82.89
2022-11-04T00:12:27.275Z,82.05
2022-11-04T00:14:54.399Z,82.97
2022-11-04T00:17:24.319Z,83.42
2022-11-04T00:20:13.213Z,82.62
2022-11-04T00:23:21.081Z,82.16
2022-11-04T00:26:14.296Z,82.63
2022-11-04T00:28:44.452Z,82.57
2022-11-04T00:31:30.447Z,83.02
2022-11-04T00:33:58.870Z,82.20
2022-11-04T00:36:26.690Z,81.49
2022-11-04T00:38:54.013Z,81.72
2022-11-04T00:41:27.832Z,82.55
2022-11-04T00:44:02.047Z,83.40
2022-11-04T00:46:31.444Z,83.64
2022-11-04T00:48:59.378Z,82.30
2022-11-04T00:51:27.382Z,83.46
2022-11-04T00:53:54.997Z,82.19
2022-11-04T00:56:22.007Z,82.11
2022-11-04T00:58:50.555Z,82.46
2022-11-04T01:01:19.280Z,82.55
2022-11-04T01:03:49.384Z,82.98
2022-11-04T01:06:17.203Z,82.71
2022-11-04T01:08:44.736Z,83.13
2022-11-04T01:11:12.233Z,82.12
2022-11-04T01:13:40.296Z,83.30
2022-11-04T01:16:11.250Z,83.48
2022-11-04T01:18:39.515Z,82.15
2022-11-04T01:21:10.055Z,82.25
2022-11-04T01:23:37.570Z,82.40
2022-11-04T01:26:18.157Z,81.68
2022-11-04T01:28:45.637Z,83.03
2022-11-04T01:31:17.734Z,81.74
2022-11-04T01:33:45.214Z,81.72
2022-11-04T01:36:12.530Z,81.27
2022-11-04T01:38:40.007Z,80.95
2022-11-04T01:41:08.906Z,80.49
2022-11-04T01:43:58.628Z,80.92
2022-11-04T01:46:42.313Z,80.85
2022-11-04T01:49:24.439Z,80.21
2022-11-04T01:52:01.091Z,79.65
2022-11-04T01:54:29.438Z,80.72
2022-11-04T01:56:58.027Z,80.83
2022-11-04T01:59:30.114Z,79.66
2022-11-04T02:01:57.422Z,79.52
2022-11-04T02:04:27.845Z,81.02
2022-11-04T02:07:08.105Z,81.33
2022-11-04T02:09:37.695Z,80.87
2022-11-04T02:12:24.060Z,81.19
2022-11-04T02:14:53.061Z,80.39
2022-11-04T02:17:20.257Z,81.39
2022-11-04T02:20:27.455Z,79.73
2022-11-04T02:23:16.784Z,79.78
2022-11-04T02:26:29.666Z,80.69
2022-11-04T02:29:32.780Z,80.59
2022-11-04T02:32:20.813Z,82.52
2022-11-04T02:35:33.608Z,80.70
2022-11-04T02:38:24.938Z,81.71
2022-11-04T02:41:03.702Z,80.48
2022-11-04T02:43:45.444Z,81.19
2022-11-04T02:46:18.347Z,80.97
2022-11-04T02:48:52.426Z,81.04
2022-11-04T02:51:27.147Z,82.80
2022-11-04T02:54:33.387Z,81.56
2022-11-04T02:57:04.015Z,81.57
2022-11-04T02:59:58.826Z,81.60
2022-11-04T03:03:04.312Z,82.90
2022-11-04T03:05:37.322Z,83.07
2022-11-04T03:08:14.622Z,82.03
2022-11-04T03:10:54.893Z,81.56
2022-11-04T03:13:36.203Z,82.04
2022-11-04T03:16:11.252Z,82.12
2022-11-04T03:19:05.402Z,82.06
2022-11-04T03:21:37.929Z,81.51
2022-11-04T03:24:06.224Z,81.62
2022-11-04T03:26:59.403Z,81.60
2022-11-04T03:29:35.381Z,81.22
2022-11-04T03:32:32.799Z,80.92
2022-11-04T03:34:59.828Z,81.01
2022-11-04T03:37:26.787Z,80.64
2022-11-04T03:39:54.642Z,80.13
2022-11-04T03:42:23.467Z,80.39
2022-11-04T03:44:58.046Z,79.54
2022-11-04T03:47:27.944Z,79.21
2022-11-04T03:50:18.391Z,80.20
2022-11-04T03:52:45.810Z,79.61
2022-11-04T03:55:13.267Z,79.00
2022-11-04T03:57:57.828Z,78.88
2022-11-04T04:00:28.105Z,79.20
2022-11-04T04:03:15.835Z,77.45
2022-11-04T04:06:16.724Z,76.88
2022-11-04T04:09:18.573Z,75.92
2022-11-04T04:11:52.788Z,75.87
2022-11-04T04:14:39.831Z,75.73
2022-11-04T04:17:32.180Z,75.43
2022-11-04T04:20:12.683Z,75.07
2022-11-04T04:22:51.291Z,75.27
2022-11-04T04:25:39.080Z,74.93
2022-11-04T04:28:06.712Z,73.87
2022-11-04T04:30:35.192Z,73.98
2022-11-04T04:33:09.020Z,74.72
2022-11-04T04:35:55.056Z,74.40
2022-11-04T04:38:45.101Z,74.48
2022-11-04T04:41:47.613Z,74.92
2022-11-04T04:44:43.061Z,74.14
2022-11-04T04:47:13.411Z,73.56
2022-11-04T04:49:58.211Z,74.64
2022-11-04T04:52:33.562Z,72.99
2022-11-04T04:55:00.979Z,72.74
2022-11-04T04:57:27.917Z,73.17
2022-11-04T04:59:55.140Z,71.88
2022-11-04T05:02:22.358Z,73.13
2022-11-04T05:04:49.798Z,72.89
2022-11-04T05:07:16.857Z,72.96
2022-11-04T05:09:43.798Z,73.89
2022-11-04T05:12:11.095Z,73.64
2022-11-04T05:14:38.127Z,74.14
2022-11-04T05:17:05.193Z,75.74
2022-11-04T05:19:32.246Z,74.44
2022-11-04T05:22:01.226Z,72.33
2022-11-04T05:24:28.409Z,71.73
2022-11-04T05:26:55.520Z,71.99
2022-11-04T05:29:22.823Z,72.11
2022-11-04T05:31:49.877Z,71.31
2022-11-04T05:34:17.214Z,69.76
2022-11-04T05:36:44.259Z,70.83
2022-11-04T05:39:13.954Z,69.66
2022-11-04T05:41:41.127Z,71.06
2022-11-04T05:44:10.686Z,71.44
2022-11-04T05:46:37.998Z,70.50
2022-11-04T05:49:05.542Z,70.39
2022-11-04T05:51:33.208Z,71.74
2022-11-04T05:54:01.831Z,70.60
2022-11-04T05:56:28.759Z,70.84
2022-11-04T05:58:56.134Z,71.22
2022-11-04T06:01:36.384Z,72.33
2022-11-04T06:04:05.470Z,73.48
2022-11-04T06:06:36.087Z,73.71
2022-11-04T06:09:04.193Z,73.18
2022-11-04T06:11:33.532Z,72.42
2022-11-04T06:14:00.815Z,71.97
2022-11-04T06:16:27.966Z,72.50
2022-11-04T06:18:55.758Z,74.35
2022-11-04T06:21:29.720Z,74.32
2022-11-04T06:23:59.294Z,74.33
2022-11-04T06:26:28.809Z,72.70
2022-11-04T06:28:56.934Z,72.30
2022-11-04T06:31:24.294Z,72.67
2022-11-04T06:33:51.361Z,73.07
2022-11-04T06:36:18.307Z,73.05
2022-11-04T06:38:45.881Z,72.80
2022-11-04T06:41:16.616Z,73.49
2022-11-04T06:43:43.737Z,73.78
2022-11-04T06:46:42.573Z,72.43
2022-11-04T06:49:17.568Z,73.12
2022-11-04T06:51:45.249Z,73.73
2022-11-04T06:54:13.008Z,74.94
2022-11-04T06:56:40.451Z,75.65
2022-11-04T06:59:08.908Z,74.72
2022-11-04T07:01:37.112Z,73.04
2022-11-04T07:04:07.465Z,74.75
2022-11-04T07:06:36.283Z,74.16
2022-11-04T07:09:05.517Z,73.25
2022-11-04T07:11:33.637Z,74.39
2022-11-04T07:14:00.684Z,73.90
2022-11-04T07:16:27.652Z,73.38
2022-11-04T07:18:55.416Z,76.42
2022-11-04T07:21:22.851Z,74.57
2022-11-04T07:23:50.034Z,74.34
2022-11-04T07:26:17.101Z,73.08
2022-11-04T07:28:44.278Z,73.03
2022-11-04T07:31:13.224Z,72.60
2022-11-04T07:33:41.065Z,73.58
2022-11-04T07:36:12.565Z,72.31
2022-11-04T07:38:39.968Z,72.55
2022-11-04T07:41:07.149Z,70.95
2022-11-04T07:43:34.455Z,70.15
2022-11-04T07:46:09.864Z,69.00
2022-11-04T07:48:37.464Z,69.33
2022-11-04T07:51:06.889Z,68.78
2022-11-04T07:53:34.322Z,68.81
2022-11-04T07:56:08.298Z,70.82
2022-11-04T07:58:35.295Z,71.80
2022-11-04T08:01:08.012Z,73.41
2022-11-04T08:03:36.710Z,72.64
2022-11-04T08:06:06.348Z,71.42
2022-11-04T08:08:34.790Z,72.45
2022-11-04T08:11:12.827Z,72.78
2022-11-04T08:13:43.719Z,72.94
2022-11-04T08:16:17.031Z,71.03
2022-11-04T08:18:45.472Z,70.77
2022-11-04T08:21:13.319Z,74.19
2022-11-04T08:23:41.060Z,75.14
2022-11-04T08:26:18.386Z,74.56
2022-11-04T08:28:45.933Z,75.46
2022-11-04T08:31:18.695Z,75.10
2022-11-04T08:33:46.138Z,75.05
2022-11-04T08:36:20.467Z,74.23
2022-11-04T08:38:48.285Z,73.68
2022-11-04T08:41:19.907Z,75.31
2022-11-04T08:43:48.015Z,74.36
2022-11-04T08:46:15.951Z,72.79
2022-11-04T08:48:43.886Z,74.31
2022-11-04T08:51:19.343Z,73.64
2022-11-04T08:53:46.256Z,72.55
2022-11-04T08:56:22.285Z,73.37
2022-11-04T08:58:49.919Z,72.25
2022-11-04T09:01:18.113Z,71.71
2022-11-04T09:03:45.565Z,73.85
2022-11-04T09:06:21.928Z,72.50
2022-11-04T09:08:50.326Z,71.69
2022-11-04T09:11:18.527Z,70.09
2022-11-04T09:13:45.525Z,70.16
2022-11-04T09:16:14.788Z,68.36
2022-11-04T09:18:43.080Z,65.67
2022-11-04T09:21:11.441Z,64.44
2022-11-04T09:23:38.971Z,65.33
2022-11-04T09:26:13.402Z,66.27
2022-11-04T09:28:41.648Z,66.31
2022-11-04T09:31:16.154Z,65.38
2022-11-04T09:33:44.483Z,64.10
2022-11-04T09:36:12.627Z,64.53
2022-11-04T09:38:41.137Z,62.42
2022-11-04T09:42:10.030Z,62.40
2022-11-04T09:45:14.960Z,64.60
2022-11-04T09:47:36.527Z,63.91
2022-11-04T09:50:07.386Z,65.89
2022-11-04T09:52:44.592Z,65.61
2022-11-04T09:55:24.577Z,66.41
2022-11-04T09:57:58.503Z,64.26
2022-11-04T10:00:30.663Z,64.05
2022-11-04T10:03:20.949Z,65.53
2022-11-04T10:06:11.874Z,65.12
2022-11-04T10:09:14.650Z,67.05
2022-11-04T10:12:49.103Z,64.90
2022-11-04T10:15:41.354Z,67.63
2022-11-04T10:18:26.990Z,67.33
2022-11-04T10:21:26.850Z,64.82
2022-11-04T10:24:15.180Z,67.59
2022-11-04T10:27:04.935Z,66.04
2022-11-04T10:29:46.205Z,66.90
2022-11-04T10:32:35.433Z,65.88
2022-11-04T10:35:13.388Z,65.89
2022-11-04T10:37:40.484Z,67.32
2022-11-04T10:40:36.537Z,65.82
2022-11-04T10:43:10.844Z,65.14
2022-11-04T10:46:20.175Z,65.04
2022-11-04T10:49:05.434Z,65.39
2022-11-04T10:51:32.387Z,65.96
2022-11-04T10:54:02.402Z,65.98
2022-11-04T10:56:54.523Z,63.49
2022-11-04T10:59:48.636Z,66.01
2022-11-04T11:02:15.941Z,64.28
2022-11-04T11:04:47.743Z,67.21
2022-11-04T11:07:22.996Z,68.57
2022-11-04T11:09:54.676Z,67.61
2022-11-04T11:12:56.155Z,67.35
2022-11-04T11:15:38.412Z,69.46
2022-11-04T11:18:15.927Z,68.61
2022-11-04T11:21:10.342Z,69.42
2022-11-04T11:23:47.634Z,69.73
2022-11-04T11:26:31.191Z,69.43
2022-11-04T11:29:02.392Z,66.95
2022-11-04T11:31:38.308Z,67.83
2022-11-04T11:34:22.824Z,67.58
2022-11-04T11:36:50.562Z,66.53
2022-11-04T11:39:23.478Z,66.91
2022-11-04T11:42:06.251Z,67.63
2022-11-04T11:44:57.096Z,66.06
2022-11-04T11:47:29.545Z,65.38
2022-11-04T11:50:18.121Z,65.96
2022-11-04T11:52:47.584Z,64.78
2022-11-04T11:55:38.349Z,67.23
2022-11-04T12:01:14.247Z,66.93
2022-11-04T12:10:51.989Z,64.86
2022-11-04T12:13:36.798Z,64.68
2022-11-04T12:16:26.379Z,65.02
2022-11-04T12:19:25.820Z,64.10
2022-11-04T12:22:50.989Z,62.95
2022-11-04T12:25:54.644Z,63.75
2022-11-04T12:28:37.067Z,63.47
2022-11-04T12:31:27.036Z,64.31
2022-11-04T12:34:46.426Z,65.37
2022-11-04T12:37:53.980Z,66.87
2022-11-04T12:40:36.450Z,64.08
2022-11-04T12:43:21.061Z,64.30
2022-11-04T12:46:13.256Z,62.71
2022-11-04T12:49:27.641Z,63.05
2022-11-04T12:52:34.630Z,63.69
2022-11-04T12:55:29.590Z,64.11
2022-11-04T12:58:47.853Z,65.89
2022-11-04T13:01:42.844Z,62.63
2022-11-04T13:04:50.186Z,63.91
2022-11-04T13:07:29.123Z,63.68
2022-11-04T13:10:38.457Z,62.19
2022-11-04T13:13:08.843Z,61.04
2022-11-04T13:15:50.156Z,62.32
2022-11-04T13:18:20.794Z,62.81
2022-11-04T13:21:16.132Z,64.15
2022-11-04T13:24:01.188Z,65.08
2022-11-04T13:26:28.457Z,63.75
2022-11-04T13:29:12.540Z,64.62
2022-11-04T13:32:01.414Z,62.55
2022-11-04T13:34:48.105Z,63.06
2022-11-04T13:37:25.487Z,62.21
2022-11-04T13:40:15.189Z,63.95
2022-11-04T13:43:39.104Z,65.74
2022-11-04T13:46:18.596Z,66.30
2022-11-04T13:49:11.893Z,61.97
2022-11-04T13:51:40.584Z,60.00
2022-11-04T13:54:27.557Z,67.49
2022-11-04T13:57:49.510Z,67.14
2022-11-04T14:00:16.661Z,68.23
2022-11-04T14:02:55.382Z,66.51
2022-11-04T14:05:28.396Z,66.94
2022-11-04T14:08:01.740Z,68.21
2022-11-04T14:10:50.336Z,68.71
2022-11-04T14:13:37.538Z,69.56
2022-11-04T14:16:33.120Z,70.90
2022-11-04T14:19:57.693Z,69.02
2022-11-04T14:22:43.820Z,68.63
2022-11-04T14:25:38.649Z,68.68
2022-11-04T14:28:14.596Z,69.25
2022-11-04T14:30:50.179Z,70.17
2022-11-04T14:33:54.666Z,71.87
2022-11-04T14:36:21.516Z,74.91
2022-11-04T14:39:12.798Z,76.14
2022-11-04T14:41:55.488Z,77.96
2022-11-04T14:44:47.971Z,77.80
2022-11-04T14:47:35.361Z,77.60
2022-11-04T14:50:08.835Z,78.46
2022-11-04T14:52:38.970Z,77.54
2022-11-04T14:55:19.484Z,77.69
2022-11-04T14:57:54.618Z,77.79
2022-11-04T15:00:52.685Z,77.38
2022-11-04T15:06:40.742Z,77.23
2022-11-04T15:09:48.970Z,78.18
2022-11-04T15:12:54.792Z,78.40
2022-11-04T15:15:32.678Z,77.61
2022-11-04T15:18:16.033Z,78.33
2022-11-04T15:20:59.492Z,77.70
2022-11-04T15:23:35.110Z,75.99
2022-11-04T15:26:04.135Z,75.14
2022-11-04T15:28:47.464Z,74.93
2022-11-04T15:31:17.138Z,75.57
2022-11-04T15:33:53.937Z,74.64
2022-11-04T15:36:43.576Z,76.23
2022-11-04T15:39:43.409Z,77.23
2022-11-04T15:42:43.603Z,78.45
2022-11-04T15:45:23.023Z,76.63
2022-11-04T15:48:10.131Z,77.14
2022-11-04T15:50:38.547Z,78.46
2022-11-04T15:53:10.067Z,76.97
2022-11-04T15:55:39.132Z,76.49
2022-11-04T15:58:09.811Z,76.70
2022-11-04T16:00:37.596Z,76.04
2022-11-04T16:03:04.901Z,76.60
2022-11-04T16:05:37.474Z,76.94
2022-11-04T16:08:21.385Z,76.92
2022-11-04T16:10:51.121Z,75.96
2022-11-04T16:13:21.605Z,77.17
2022-11-04T16:15:59.484Z,77.15
2022-11-04T16:18:41.709Z,76.83
2022-11-04T16:21:26.005Z,78.18
2022-11-04T16:24:22.614Z,78.11
2022-11-04T16:26:50.585Z,77.82
2022-11-04T16:29:27.718Z,76.61
2022-11-04T16:32:17.201Z,75.98
2022-11-04T16:34:46.294Z,76.42
2022-11-04T16:37:13.642Z,76.51
2022-11-04T16:39:43.298Z,76.58
2022-11-04T16:42:15.817Z,77.52
2022-11-04T16:44:54.747Z,77.17
2022-11-04T16:47:21.859Z,77.57
2022-11-04T16:49:48.972Z,76.65
2022-11-04T16:52:25.480Z,76.91
2022-11-04T16:54:56.311Z,77.68
2022-11-04T16:57:25.454Z,78.36
2022-11-04T16:59:52.438Z,78.07
2022-11-04T17:02:28.675Z,77.42
2022-11-04T17:06:02.757Z,77.99
2022-11-04T17:08:29.812Z,77.71
2022-11-04T17:10:56.937Z,78.15
2022-11-04T17:13:23.931Z,79.60
2022-11-04T17:15:51.523Z,78.56
2022-11-04T17:18:18.764Z,78.20
2022-11-04T17:20:54.418Z,77.09
2022-11-04T17:23:22.224Z,77.44
2022-11-04T17:25:49.765Z,77.28
2022-11-04T17:28:17.014Z,77.61
2022-11-04T17:30:44.788Z,78.41
2022-11-04T17:33:18.194Z,81.83
2022-11-04T17:35:51.334Z,82.35
2022-11-04T17:38:19.381Z,81.30
2022-11-04T17:41:05.783Z,81.02
2022-11-04T17:43:51.589Z,80.97
2022-11-04T17:46:37.261Z,80.34
2022-11-04T17:49:17.492Z,79.94
2022-11-04T17:52:03.199Z,79.04
2022-11-04T17:54:30.704Z,78.76
2022-11-04T17:56:58.444Z,78.45
2022-11-04T17:59:25.579Z,78.15
2022-11-04T18:01:52.973Z,77.61
2022-11-04T18:04:22.496Z,77.54
2022-11-04T18:06:50.676Z,77.49
2022-11-04T18:09:18.954Z,77.85
2022-11-04T18:12:05.180Z,76.85
2022-11-04T18:14:33.293Z,76.71
2022-11-04T18:17:00.347Z,76.95
2022-11-04T18:19:28.347Z,77.45
2022-11-04T18:21:55.570Z,76.83
2022-11-04T18:24:23.504Z,76.77
2022-11-04T18:26:51.299Z,77.00
2022-11-04T18:29:18.888Z,76.74
2022-11-04T18:31:49.376Z,76.73
2022-11-04T18:34:21.355Z,77.01
2022-11-04T18:36:49.013Z,77.13
2022-11-04T18:39:18.548Z,78.54
2022-11-04T18:41:46.161Z,77.70
2022-11-04T18:44:18.115Z,77.76
2022-11-04T18:46:45.630Z,77.42
2022-11-04T18:49:13.525Z,78.22
2022-11-04T18:51:41.154Z,78.14
2022-11-04T18:54:13.682Z,78.94
2022-11-04T18:56:41.287Z,79.09
2022-11-04T18:59:11.501Z,78.36
2022-11-04T19:01:38.668Z,78.52
2022-11-04T19:04:06.116Z,78.85
2022-11-04T19:06:42.053Z,79.70
2022-11-04T19:09:44.776Z,80.01
2022-11-04T19:12:18.781Z,79.72
2022-11-04T19:14:45.987Z,79.38
2022-11-04T19:17:12.923Z,78.89
2022-11-04T19:19:41.183Z,79.86
2022-11-04T19:22:09.201Z,79.73
2022-11-04T19:24:36.489Z,80.41
2022-11-04T19:27:04.382Z,79.94
2022-11-04T19:29:32.895Z,79.91
2022-11-04T19:32:00.955Z,81.14
2022-11-04T19:34:27.840Z,79.98
2022-11-04T19:36:54.961Z,80.34
2022-11-04T19:39:21.923Z,80.29
2022-11-04T19:42:07.750Z,80.50
2022-11-04T19:44:34.691Z,80.32
2022-11-04T19:47:01.979Z,79.93
2022-11-04T19:49:31.483Z,81.14
2022-11-04T19:52:00.044Z,80.94
2022-11-04T19:54:28.436Z,80.31
2022-11-04T19:56:55.669Z,81.11
2022-11-04T19:59:22.793Z,81.27
2022-11-04T20:01:50.733Z,80.12
2022-11-04T20:04:18.275Z,80.14
2022-11-04T20:06:45.195Z,80.07
2022-11-04T20:09:13.060Z,80.72
2022-11-04T20:12:19.705Z,81.82
2022-11-04T20:14:47.022Z,80.83
2022-11-04T20:17:13.976Z,81.27
2022-11-04T20:19:41.111Z,80.92
2022-11-04T20:22:08.708Z,80.58
2022-11-04T20:24:35.619Z,80.59
2022-11-04T20:27:02.944Z,80.79
2022-11-04T20:29:30.041Z,80.30
2022-11-04T20:31:58.304Z,80.65
2022-11-04T20:34:30.130Z,79.83
2022-11-04T20:37:00.654Z,79.80
2022-11-04T20:39:27.551Z,79.73
2022-11-04T20:41:54.647Z,81.03
2022-11-04T20:44:22.256Z,79.78
2022-11-04T20:46:49.266Z,81.05
2022-11-04T20:49:16.372Z,80.34
2022-11-04T20:51:50.202Z,79.19
2022-11-04T20:54:20.799Z,80.55
2022-11-04T20:56:47.891Z,80.24
2022-11-04T20:59:15.164Z,80.06
2022-11-04T21:01:44.671Z,80.02
2022-11-04T21:04:19.203Z,80.20
2022-11-04T21:06:50.969Z,79.87
2022-11-04T21:09:21.342Z,80.29
2022-11-04T21:11:49.156Z,79.41
2022-11-04T21:14:19.372Z,80.20
2022-11-04T21:16:47.566Z,79.27
2022-11-04T21:19:16.136Z,80.68
2022-11-04T21:21:44.810Z,79.53
2022-11-04T21:24:14.662Z,80.54
2022-11-04T21:26:43.028Z,80.36
2022-11-04T21:29:15.276Z,79.63
2022-11-04T21:31:43.729Z,79.35
2022-11-04T21:34:12.065Z,78.57
2022-11-04T21:36:39.988Z,79.74
2022-11-04T21:39:07.919Z,79.63
2022-11-04T21:41:37.211Z,80.18
2022-11-04T21:44:11.380Z,80.68
2022-11-04T21:46:38.561Z,79.74
2022-11-04T21:49:05.920Z,80.28
2022-11-04T21:51:34.278Z,79.74
2022-11-04T21:54:04.587Z,80.23
2022-11-04T21:56:34.666Z,80.48
2022-11-04T21:59:02.441Z,80.26
2022-11-04T22:01:31.595Z,79.66
2022-11-04T22:04:01.845Z,79.33
2022-11-04T22:06:35.293Z,79.53
2022-11-04T22:09:06.652Z,79.33
2022-11-04T22:11:37.192Z,79.70
2022-11-04T22:14:08.316Z,79.65
2022-11-04T22:16:38.549Z,80.01
2022-11-04T22:19:10.995Z,79.47
2022-11-04T22:21:44.376Z,78.94
2022-11-04T22:24:17.439Z,79.34
2022-11-04T22:26:44.402Z,78.56
2022-11-04T22:29:11.361Z,78.96
2022-11-04T22:31:41.896Z,79.63
2022-11-04T22:34:09.923Z,79.73
2022-11-04T22:36:37.915Z,79.83
2022-11-04T22:39:05.801Z,80.49
2022-11-04T22:41:35.555Z,80.24
2022-11-04T22:44:03.313Z,80.07
2022-11-04T22:46:33.049Z,79.52
2022-11-04T22:49:03.061Z,80.61
2022-11-04T22:51:31.506Z,80.03
2022-11-04T22:54:04.629Z,80.28
2022-11-04T22:56:35.019Z,80.63
2022-11-04T22:59:02.223Z,79.90
2022-11-04T23:01:31.425Z,80.25
2022-11-04T23:03:59.333Z,79.67
2022-11-04T23:06:26.336Z,79.69
2022-11-04T23:08:59.705Z,80.21
2022-11-04T23:11:47.255Z,80.39
2022-11-04T23:14:36.319Z,80.12
2022-11-04T23:17:42.419Z,80.04
2022-11-04T23:20:14.655Z,80.51
2022-11-04T23:23:00.441Z,80.20
2022-11-04T23:25:27.785Z,80.20
2022-11-04T23:28:14.604Z,80.46
2022-11-04T23:30:46.539Z,79.48
2022-11-04T23:33:15.344Z,80.34
2022-11-04T23:36:08.031Z,79.99
2022-11-04T23:38:38.000Z,79.86
2022-11-04T23:41:26.462Z,79.53
2022-11-04T23:43:53.512Z,79.13
2022-11-04T23:46:43.173Z,79.60
2022-11-04T23:49:14.786Z,79.43
2022-11-04T23:52:00.648Z,78.14
2022-11-04T23:54:46.618Z,79.02
2022-11-04T23:57:35.355Z,79.47
